sensor_id;sensor_type;location;lat;lon;timestamp;pressure;altitude;pressure_sealevel;temperature;humidity
21594;BME280;10959;51.328;7.322;2023-02-11T00:01:42;100505.63;;;7.39;77.18
21594;BME280;10959;51.328;7.322;2023-02-11T00:04:08;100509.19;;;7.41;77.05
21594;BME280;10959;51.328;7.322;2023-02-11T00:06:35;100508.31;;;7.39;76.41
21594;BME280;10959;51.328;7.322;2023-02-11T00:09:02;100512.78;;;7.42;76.54
21594;BME280;10959;51.328;7.322;2023-02-11T00:11:29;100505.59;;;7.42;76.87
21594;BME280;10959;51.328;7.322;2023-02-11T00:13:56;100503.81;;;7.41;76.92
21594;BME280;10959;51.328;7.322;2023-02-11T00:16:24;100493.09;;;7.41;76.42
21594;BME280;10959;51.328;7.322;2023-02-11T00:18:51;100486.03;;;7.34;77.05
21594;BME280;10959;51.328;7.322;2023-02-11T00:21:20;100491.38;;;7.37;76.84
21594;BME280;10959;51.328;7.322;2023-02-11T00:23:47;100489.59;;;7.36;76.87
21594;BME280;10959;51.328;7.322;2023-02-11T00:26:15;100491.38;;;7.34;76.65
21594;BME280;10959;51.328;7.322;2023-02-11T00:28:42;100480.66;;;7.37;76.87
21594;BME280;10959;51.328;7.322;2023-02-11T00:31:09;100482.44;;;7.35;76.73
21594;BME280;10959;51.328;7.322;2023-02-11T00:33:37;100480.66;;;7.34;76.77
21594;BME280;10959;51.328;7.322;2023-02-11T00:36:05;100464.63;;;7.31;77.40
21594;BME280;10959;51.328;7.322;2023-02-11T00:38:32;100474.44;;;7.32;77.44
21594;BME280;10959;51.328;7.322;2023-02-11T00:40:58;100471.75;;;7.32;77.37
21594;BME280;10959;51.328;7.322;2023-02-11T00:43:25;100459.25;;;7.31;76.80
21594;BME280;10959;51.328;7.322;2023-02-11T00:45:51;100468.19;;;7.30;77.19
21594;BME280;10959;51.328;7.322;2023-02-11T00:48:18;100478.94;;;7.27;77.56
21594;BME280;10959;51.328;7.322;2023-02-11T00:50:45;100485.19;;;7.31;77.54
21594;BME280;10959;51.328;7.322;2023-02-11T00:53:12;100487.84;;;7.32;77.25
21594;BME280;10959;51.328;7.322;2023-02-11T00:55:38;100498.53;;;7.35;77.09
21594;BME280;10959;51.328;7.322;2023-02-11T00:58:05;100502.09;;;7.37;77.05
21594;BME280;10959;51.328;7.322;2023-02-11T01:00:31;100492.28;;;7.35;77.08
21594;BME280;10959;51.328;7.322;2023-02-11T01:02:58;100491.38;;;7.37;77.52
21594;BME280;10959;51.328;7.322;2023-02-11T01:05:24;100476.19;;;7.38;77.07
21594;BME280;10959;51.328;7.322;2023-02-11T01:07:52;100465.44;;;7.39;77.13
21594;BME280;10959;51.328;7.322;2023-02-11T01:10:18;100471.72;;;7.35;77.27
21594;BME280;10959;51.328;7.322;2023-02-11T01:12:45;100475.31;;;7.37;77.23
21594;BME280;10959;51.328;7.322;2023-02-11T01:15:14;100469.94;;;7.37;77.28
21594;BME280;10959;51.328;7.322;2023-02-11T01:17:41;100475.25;;;7.40;77.33
21594;BME280;10959;51.328;7.322;2023-02-11T01:20:13;100476.22;;;7.33;76.96
21594;BME280;10959;51.328;7.322;2023-02-11T01:22:40;100480.59;;;7.43;77.54
21594;BME280;10959;51.328;7.322;2023-02-11T01:25:08;100476.13;;;7.42;77.23
21594;BME280;10959;51.328;7.322;2023-02-11T01:27:35;100480.63;;;7.40;77.88
21594;BME280;10959;51.328;7.322;2023-02-11T01:30:03;100483.28;;;7.43;77.53
21594;BME280;10959;51.328;7.322;2023-02-11T01:32:30;100480.59;;;7.43;77.58
21594;BME280;10959;51.328;7.322;2023-02-11T01:34:57;100481.44;;;7.47;77.70
21594;BME280;10959;51.328;7.322;2023-02-11T01:37:23;100478.72;;;7.49;77.68
21594;BME280;10959;51.328;7.322;2023-02-11T01:39:50;100473.38;;;7.49;77.57
21594;BME280;10959;51.328;7.322;2023-02-11T01:42:21;100472.56;;;7.42;77.28
21594;BME280;10959;51.328;7.322;2023-02-11T01:44:48;100476.03;;;7.52;77.31
21594;BME280;10959;51.328;7.322;2023-02-11T01:47:16;100482.31;;;7.51;77.66
21594;BME280;10959;51.328;7.322;2023-02-11T01:49:45;100493.03;;;7.51;77.40
21594;BME280;10959;51.328;7.322;2023-02-11T01:52:16;100500.22;;;7.46;77.48
21594;BME280;10959;51.328;7.322;2023-02-11T01:54:48;100502.84;;;7.49;77.50
21594;BME280;10959;51.328;7.322;2023-02-11T01:57:36;100507.34;;;7.47;77.90
21594;BME280;10959;51.328;7.322;2023-02-11T02:00:08;100502.88;;;7.47;78.08
21594;BME280;10959;51.328;7.322;2023-02-11T02:02:41;100489.50;;;7.44;78.14
21594;BME280;10959;51.328;7.322;2023-02-11T02:05:19;100478.84;;;7.39;77.81
21594;BME280;10959;51.328;7.322;2023-02-11T02:07:53;100460.03;;;7.44;78.23
21594;BME280;10959;51.328;7.322;2023-02-11T02:10:23;100464.44;;;7.50;78.27
21594;BME280;10959;51.328;7.322;2023-02-11T02:12:52;100450.09;;;7.54;77.97
21594;BME280;10959;51.328;7.322;2023-02-11T02:15:27;100450.22;;;7.44;77.62
21594;BME280;10959;51.328;7.322;2023-02-11T02:18:08;100446.66;;;7.42;77.75
21594;BME280;10959;51.328;7.322;2023-02-11T02:27:12;100461.81;;;7.43;78.27
21594;BME280;10959;51.328;7.322;2023-02-11T02:30:19;100459.28;;;7.28;78.50
21594;BME280;10959;51.328;7.322;2023-02-11T02:32:59;100451.13;;;7.42;78.50
21594;BME280;10959;51.328;7.322;2023-02-11T02:35:35;100443.97;;;7.42;78.28
21594;BME280;10959;51.328;7.322;2023-02-11T02:38:10;100433.16;;;7.53;78.19
21594;BME280;10959;51.328;7.322;2023-02-11T02:40:43;100434.06;;;7.51;78.50
21594;BME280;10959;51.328;7.322;2023-02-11T02:43:11;100418.81;;;7.54;78.65
21594;BME280;10959;51.328;7.322;2023-02-11T02:45:39;100417.94;;;7.54;78.67
21594;BME280;10959;51.328;7.322;2023-02-11T02:48:23;100411.91;;;7.33;78.71
21594;BME280;10959;51.328;7.322;2023-02-11T02:50:53;100414.41;;;7.52;78.52
21594;BME280;10959;51.328;7.322;2023-02-11T02:53:32;100416.28;;;7.43;78.73
21594;BME280;10959;51.328;7.322;2023-02-11T02:56:08;100427.81;;;7.49;78.74
21594;BME280;10959;51.328;7.322;2023-02-11T02:59:08;100431.56;;;7.32;78.40
21594;BME280;10959;51.328;7.322;2023-02-11T03:01:42;100418.00;;;7.48;78.81
21594;BME280;10959;51.328;7.322;2023-02-11T03:04:19;100419.81;;;7.46;78.69
21594;BME280;10959;51.328;7.322;2023-02-11T03:06:52;100417.09;;;7.50;78.86
21594;BME280;10959;51.328;7.322;2023-02-11T03:09:24;100422.44;;;7.52;78.81
21594;BME280;10959;51.328;7.322;2023-02-11T03:11:51;100417.06;;;7.53;78.64
21594;BME280;10959;51.328;7.322;2023-02-11T03:14:18;100414.31;;;7.58;78.55
21594;BME280;10959;51.328;7.322;2023-02-11T03:16:48;100411.63;;;7.58;78.71
21594;BME280;10959;51.328;7.322;2023-02-11T03:19:19;100409.03;;;7.49;79.00
21594;BME280;10959;51.328;7.322;2023-02-11T03:21:48;100397.34;;;7.56;79.15
21594;BME280;10959;51.328;7.322;2023-02-11T03:24:20;100396.56;;;7.48;78.82
21594;BME280;10959;51.328;7.322;2023-02-11T03:26:52;100401.94;;;7.46;79.38
21594;BME280;10959;51.328;7.322;2023-02-11T03:29:26;100414.53;;;7.39;79.22
21594;BME280;10959;51.328;7.322;2023-02-11T03:32:01;100419.88;;;7.41;79.26
21594;BME280;10959;51.328;7.322;2023-02-11T03:34:36;100419.00;;;7.36;79.24
21594;BME280;10959;51.328;7.322;2023-02-11T03:37:10;100427.81;;;7.47;79.41
21594;BME280;10959;51.328;7.322;2023-02-11T03:39:41;100429.56;;;7.51;79.14
21594;BME280;10959;51.328;7.322;2023-02-11T03:42:12;100430.44;;;7.55;79.07
21594;BME280;10959;51.328;7.322;2023-02-11T03:44:43;100434.03;;;7.54;79.35
21594;BME280;10959;51.328;7.322;2023-02-11T03:47:12;100425.13;;;7.52;78.87
21594;BME280;10959;51.328;7.322;2023-02-11T03:49:42;100414.41;;;7.52;79.06
21594;BME280;10959;51.328;7.322;2023-02-11T03:52:11;100409.03;;;7.52;79.25
21594;BME280;10959;51.328;7.322;2023-02-11T03:54:40;100410.75;;;7.56;79.24
21594;BME280;10959;51.328;7.322;2023-02-11T03:57:08;100409.00;;;7.55;79.37
21594;BME280;10959;51.328;7.322;2023-02-11T03:59:49;100415.44;;;7.35;79.51
21594;BME280;10959;51.328;7.322;2023-02-11T04:02:16;100415.25;;;7.55;79.22
21594;BME280;10959;51.328;7.322;2023-02-11T04:04:44;100403.69;;;7.49;79.49
21594;BME280;10959;51.328;7.322;2023-02-11T04:07:11;100394.72;;;7.51;79.54
21594;BME280;10959;51.328;7.322;2023-02-11T04:09:37;100391.13;;;7.55;79.34
21594;BME280;10959;51.328;7.322;2023-02-11T04:12:04;100390.28;;;7.49;79.73
21594;BME280;10959;51.328;7.322;2023-02-11T04:14:31;100384.06;;;7.47;79.77
21594;BME280;10959;51.328;7.322;2023-02-11T04:16:58;100394.75;;;7.50;80.15
21594;BME280;10959;51.328;7.322;2023-02-11T04:19:24;100394.72;;;7.53;80.18
21594;BME280;10959;51.328;7.322;2023-02-11T04:21:52;100389.34;;;7.53;79.72
21594;BME280;10959;51.328;7.322;2023-02-11T04:24:18;100395.66;;;7.50;79.88
21594;BME280;10959;51.328;7.322;2023-02-11T04:26:45;100388.53;;;7.48;79.96
21594;BME280;10959;51.328;7.322;2023-02-11T04:29:11;100401.88;;;7.51;80.30
21594;BME280;10959;51.328;7.322;2023-02-11T04:31:38;100409.03;;;7.52;79.94
21594;BME280;10959;51.328;7.322;2023-02-11T04:34:04;100409.03;;;7.49;79.95
21594;BME280;10959;51.328;7.322;2023-02-11T04:36:30;100394.72;;;7.53;80.18
21594;BME280;10959;51.328;7.322;2023-02-11T04:38:59;100398.31;;;7.52;79.71
21594;BME280;10959;51.328;7.322;2023-02-11T04:41:25;100397.50;;;7.45;80.51
21594;BME280;10959;51.328;7.322;2023-02-11T04:43:51;100414.44;;;7.46;80.56
21594;BME280;10959;51.328;7.322;2023-02-11T04:46:18;100419.84;;;7.42;80.62
21594;BME280;10959;51.328;7.322;2023-02-11T04:48:44;100425.19;;;7.42;81.00
21594;BME280;10959;51.328;7.322;2023-02-11T04:51:11;100434.13;;;7.44;80.74
21594;BME280;10959;51.328;7.322;2023-02-11T04:53:37;100435.88;;;7.46;81.07
21594;BME280;10959;51.328;7.322;2023-02-11T04:56:05;100434.09;;;7.48;81.12
21594;BME280;10959;51.328;7.322;2023-02-11T04:58:32;100423.41;;;7.44;80.74
21594;BME280;10959;51.328;7.322;2023-02-11T05:01:04;100411.00;;;7.37;80.82
21594;BME280;10959;51.328;7.322;2023-02-11T05:03:31;100407.28;;;7.48;80.78
21594;BME280;10959;51.328;7.322;2023-02-11T05:05:57;100408.16;;;7.48;80.95
21594;BME280;10959;51.328;7.322;2023-02-11T05:08:24;100402.81;;;7.47;80.74
21594;BME280;10959;51.328;7.322;2023-02-11T05:10:50;100407.28;;;7.48;81.26
21594;BME280;10959;51.328;7.322;2023-02-11T05:13:18;100400.09;;;7.50;80.81
21594;BME280;10959;51.328;7.322;2023-02-11T05:15:44;100410.84;;;7.50;80.91
21594;BME280;10959;51.328;7.322;2023-02-11T05:18:11;100403.69;;;7.49;80.83
21594;BME280;10959;51.328;7.322;2023-02-11T05:20:39;100409.03;;;7.52;80.99
21594;BME280;10959;51.328;7.322;2023-02-11T05:23:05;100406.34;;;7.53;81.04
21594;BME280;10959;51.328;7.322;2023-02-11T05:25:32;100409.03;;;7.52;80.87
21594;BME280;10959;51.328;7.322;2023-02-11T05:27:58;100408.16;;;7.48;81.36
21594;BME280;10959;51.328;7.322;2023-02-11T05:30:26;100406.38;;;7.49;81.27
21594;BME280;10959;51.328;7.322;2023-02-11T05:32:53;100410.00;;;7.46;81.64
21594;BME280;10959;51.328;7.322;2023-02-11T05:35:19;100404.66;;;7.44;81.51
21594;BME280;10959;51.328;7.322;2023-02-11T05:37:46;100396.63;;;7.44;81.61
21594;BME280;10959;51.328;7.322;2023-02-11T05:40:12;100404.63;;;7.46;81.41
21594;BME280;10959;51.328;7.322;2023-02-11T05:42:39;100398.38;;;7.46;81.59
21594;BME280;10959;51.328;7.322;2023-02-11T05:45:06;100395.66;;;7.47;81.78
21594;BME280;10959;51.328;7.322;2023-02-11T05:47:34;100396.63;;;7.44;81.76
21594;BME280;10959;51.328;7.322;2023-02-11T05:50:00;100403.72;;;7.46;81.71
21594;BME280;10959;51.328;7.322;2023-02-11T05:52:27;100405.50;;;7.47;81.38
21594;BME280;10959;51.328;7.322;2023-02-11T05:54:53;100407.28;;;7.48;81.81
21594;BME280;10959;51.328;7.322;2023-02-11T05:57:20;100407.28;;;7.48;81.86
21594;BME280;10959;51.328;7.322;2023-02-11T05:59:46;100405.47;;;7.50;81.63
21594;BME280;10959;51.328;7.322;2023-02-11T06:02:12;100403.69;;;7.49;81.53
21594;BME280;10959;51.328;7.322;2023-02-11T06:04:40;100400.09;;;7.50;81.11
21594;BME280;10959;51.328;7.322;2023-02-11T06:07:08;100405.47;;;7.50;81.24
21594;BME280;10959;51.328;7.322;2023-02-11T06:09:35;100406.31;;;7.55;81.21
21594;BME280;10959;51.328;7.322;2023-02-11T06:12:02;100401.00;;;7.50;81.38
21594;BME280;10959;51.328;7.322;2023-02-11T06:14:28;100398.31;;;7.52;81.55
21594;BME280;10959;51.328;7.322;2023-02-11T06:16:57;100392.97;;;7.52;80.99
21594;BME280;10959;51.328;7.322;2023-02-11T06:19:23;100402.72;;;7.54;81.12
21594;BME280;10959;51.328;7.322;2023-02-11T06:21:51;100403.63;;;7.55;81.23
21594;BME280;10959;51.328;7.322;2023-02-11T06:24:18;100410.75;;;7.59;80.95
21594;BME280;10959;51.328;7.322;2023-02-11T06:26:44;100400.94;;;7.56;80.96
21594;BME280;10959;51.328;7.322;2023-02-11T06:29:11;100409.03;;;7.52;81.61
21594;BME280;10959;51.328;7.322;2023-02-11T06:31:38;100391.13;;;7.54;81.24
21594;BME280;10959;51.328;7.322;2023-02-11T06:34:05;100396.53;;;7.51;81.47
21594;BME280;10959;51.328;7.322;2023-02-11T06:36:32;100408.06;;;7.56;81.73
21594;BME280;10959;51.328;7.322;2023-02-11T06:39:00;100410.75;;;7.56;81.10
21594;BME280;10959;51.328;7.322;2023-02-11T06:41:26;100405.41;;;7.57;81.40
21594;BME280;10959;51.328;7.322;2023-02-11T06:43:53;100405.38;;;7.56;81.57
21594;BME280;10959;51.328;7.322;2023-02-11T06:46:19;100409.84;;;7.57;81.69
21594;BME280;10959;51.328;7.322;2023-02-11T06:48:46;100417.84;;;7.60;81.74
21594;BME280;10959;51.328;7.322;2023-02-11T06:51:13;100410.69;;;7.62;81.57
21594;BME280;10959;51.328;7.322;2023-02-11T06:53:42;100400.03;;;7.59;81.33
21594;BME280;10959;51.328;7.322;2023-02-11T06:56:12;100407.16;;;7.57;81.25
21594;BME280;10959;51.328;7.322;2023-02-11T06:58:39;100402.69;;;7.59;81.23
21594;BME280;10959;51.328;7.322;2023-02-11T07:01:07;100410.75;;;7.56;81.37
21594;BME280;10959;51.328;7.322;2023-02-11T07:03:34;100412.50;;;7.60;81.46
21594;BME280;10959;51.328;7.322;2023-02-11T07:06:01;100412.53;;;7.57;81.89
21594;BME280;10959;51.328;7.322;2023-02-11T07:08:28;100426.84;;;7.57;81.91
21594;BME280;10959;51.328;7.322;2023-02-11T07:10:55;100425.03;;;7.58;81.76
21594;BME280;10959;51.328;7.322;2023-02-11T07:13:23;100423.22;;;7.60;81.44
21594;BME280;10959;51.328;7.322;2023-02-11T07:15:49;100426.84;;;7.56;81.71
21594;BME280;10959;51.328;7.322;2023-02-11T07:18:16;100419.72;;;7.55;82.14
21594;BME280;10959;51.328;7.322;2023-02-11T07:20:42;100422.41;;;7.55;82.16
21594;BME280;10959;51.328;7.322;2023-02-11T07:23:09;100420.53;;;7.60;82.23
21594;BME280;10959;51.328;7.322;2023-02-11T07:25:36;100426.81;;;7.59;81.94
21594;BME280;10959;51.328;7.322;2023-02-11T07:28:03;100428.56;;;7.60;81.93
21594;BME280;10959;51.328;7.322;2023-02-11T07:30:31;100425.13;;;7.52;82.05
21594;BME280;10959;51.328;7.322;2023-02-11T07:32:58;100434.88;;;7.57;82.25
21594;BME280;10959;51.328;7.322;2023-02-11T07:35:24;100438.41;;;7.61;82.29
21594;BME280;10959;51.328;7.322;2023-02-11T07:37:51;100435.69;;;7.64;82.39
21594;BME280;10959;51.328;7.322;2023-02-11T07:40:17;100440.19;;;7.62;82.37
21594;BME280;10959;51.328;7.322;2023-02-11T07:42:44;100444.63;;;7.66;82.75
21594;BME280;10959;51.328;7.322;2023-02-11T07:45:10;100437.50;;;7.62;82.68
21594;BME280;10959;51.328;7.322;2023-02-11T07:47:39;100448.22;;;7.62;82.26
21594;BME280;10959;51.328;7.322;2023-02-11T07:50:07;100450.88;;;7.65;82.84
21594;BME280;10959;51.328;7.322;2023-02-11T07:52:33;100444.66;;;7.63;82.79
21594;BME280;10959;51.328;7.322;2023-02-11T07:55:00;100444.63;;;7.66;82.74
21594;BME280;10959;51.328;7.322;2023-02-11T07:57:26;100444.63;;;7.66;82.66
21594;BME280;10959;51.328;7.322;2023-02-11T07:59:53;100441.03;;;7.66;82.65
21594;BME280;10959;51.328;7.322;2023-02-11T08:02:19;100439.22;;;7.69;82.89
21594;BME280;10959;51.328;7.322;2023-02-11T08:04:47;100436.50;;;7.71;82.48
21594;BME280;10959;51.328;7.322;2023-02-11T08:07:15;100438.28;;;7.72;82.75
21594;BME280;10959;51.328;7.322;2023-02-11T08:09:41;100439.19;;;7.72;82.82
21594;BME280;10959;51.328;7.322;2023-02-11T08:12:08;100439.25;;;7.66;82.73
21594;BME280;10959;51.328;7.322;2023-02-11T08:14:34;100442.75;;;7.71;82.82
21594;BME280;10959;51.328;7.322;2023-02-11T08:17:01;100437.38;;;7.71;82.79
21594;BME280;10959;51.328;7.322;2023-02-11T08:19:27;100444.53;;;7.72;83.04
21594;BME280;10959;51.328;7.322;2023-02-11T08:21:56;100453.47;;;7.71;82.75
21594;BME280;10959;51.328;7.322;2023-02-11T08:24:23;100445.41;;;7.74;82.84
21594;BME280;10959;51.328;7.322;2023-02-11T08:26:49;100450.78;;;7.73;83.22
21594;BME280;10959;51.328;7.322;2023-02-11T08:29:16;100441.91;;;7.69;82.96
21594;BME280;10959;51.328;7.322;2023-02-11T08:31:44;100457.00;;;7.78;83.06
21594;BME280;10959;51.328;7.322;2023-02-11T08:34:12;100465.94;;;7.75;82.76
21594;BME280;10959;51.328;7.322;2023-02-11T08:36:42;100474.88;;;7.74;84.05
21594;BME280;10959;51.328;7.322;2023-02-11T08:39:13;100491.06;;;7.68;83.77
21594;BME280;10959;51.328;7.322;2023-02-11T08:41:40;100484.69;;;7.78;83.87
21594;BME280;10959;51.328;7.322;2023-02-11T08:44:07;100485.59;;;7.77;83.67
21594;BME280;10959;51.328;7.322;2023-02-11T08:46:33;100490.03;;;7.80;83.93
21594;BME280;10959;51.328;7.322;2023-02-11T08:49:00;100485.53;;;7.84;83.74
21594;BME280;10959;51.328;7.322;2023-02-11T08:51:27;100481.03;;;7.86;83.77
21594;BME280;10959;51.328;7.322;2023-02-11T08:53:54;100483.69;;;7.86;83.34
21594;BME280;10959;51.328;7.322;2023-02-11T08:56:23;100489.06;;;7.86;83.25
21594;BME280;10959;51.328;7.322;2023-02-11T08:58:50;100489.06;;;7.89;83.26
21594;BME280;10959;51.328;7.322;2023-02-11T09:01:18;100492.63;;;7.88;83.69
21594;BME280;10959;51.328;7.322;2023-02-11T09:03:45;100501.63;;;7.84;83.85
21594;BME280;10959;51.328;7.322;2023-02-11T09:06:13;100503.41;;;7.85;83.83
21594;BME280;10959;51.328;7.322;2023-02-11T09:08:44;100503.44;;;7.82;83.50
21594;BME280;10959;51.328;7.322;2023-02-11T09:11:11;100508.81;;;7.82;83.98
21594;BME280;10959;51.328;7.322;2023-02-11T09:13:41;100520.38;;;7.85;83.27
21594;BME280;10959;51.328;7.322;2023-02-11T09:16:15;100519.50;;;7.85;83.07
21594;BME280;10959;51.328;7.322;2023-02-11T09:18:42;100514.88;;;7.98;83.25
21594;BME280;10959;51.328;7.322;2023-02-11T09:21:10;100522.94;;;7.96;83.34
21594;BME280;10959;51.328;7.322;2023-02-11T09:23:37;100522.91;;;7.99;83.27
21594;BME280;10959;51.328;7.322;2023-02-11T09:26:06;100522.00;;;8.02;83.13
21594;BME280;10959;51.328;7.322;2023-02-11T09:28:33;100521.03;;;8.04;83.50
21594;BME280;10959;51.328;7.322;2023-02-11T09:31:05;100523.84;;;7.95;83.10
21594;BME280;10959;51.328;7.322;2023-02-11T09:33:32;100524.63;;;8.06;83.88
21594;BME280;10959;51.328;7.322;2023-02-11T09:35:59;100522.84;;;8.05;83.16
21594;BME280;10959;51.328;7.322;2023-02-11T09:38:26;100522.88;;;8.02;84.17
21594;BME280;10959;51.328;7.322;2023-02-11T09:40:52;100526.41;;;8.04;83.52
21594;BME280;10959;51.328;7.322;2023-02-11T09:43:21;100528.19;;;8.05;83.49
21594;BME280;10959;51.328;7.322;2023-02-11T09:45:48;100529.97;;;8.08;83.91
21594;BME280;10959;51.328;7.322;2023-02-11T09:48:19;100537.94;;;8.12;83.66
21594;BME280;10959;51.328;7.322;2023-02-11T09:50:50;100535.34;;;8.06;83.75
21594;BME280;10959;51.328;7.322;2023-02-11T09:53:21;100537.13;;;8.07;83.61
21594;BME280;10959;51.328;7.322;2023-02-11T09:55:51;100543.28;;;8.14;83.53
21594;BME280;10959;51.328;7.322;2023-02-11T09:58:25;100544.22;;;8.11;83.92
21594;BME280;10959;51.328;7.322;2023-02-11T10:00:58;100549.56;;;8.11;84.08
21594;BME280;10959;51.328;7.322;2023-02-11T10:03:46;100552.41;;;8.01;83.86
21594;BME280;10959;51.328;7.322;2023-02-11T10:06:28;100546.97;;;8.07;83.98
21594;BME280;10959;51.328;7.322;2023-02-11T10:09:04;100546.00;;;8.12;84.18
21594;BME280;10959;51.328;7.322;2023-02-11T10:11:40;100546.94;;;8.08;83.93
21594;BME280;10959;51.328;7.322;2023-02-11T10:14:24;100552.25;;;8.11;84.03
21594;BME280;10959;51.328;7.322;2023-02-11T10:17:01;100543.31;;;8.12;84.41
21594;BME280;10959;51.328;7.322;2023-02-11T10:19:55;100558.63;;;8.01;83.77
21594;BME280;10959;51.328;7.322;2023-02-11T10:22:28;100553.09;;;8.18;84.63
21594;BME280;10959;51.328;7.322;2023-02-11T10:24:58;100563.75;;;8.26;84.30
21594;BME280;10959;51.328;7.322;2023-02-11T10:27:28;100563.75;;;8.26;84.00
21594;BME280;10959;51.328;7.322;2023-02-11T10:29:59;100567.31;;;8.26;84.16
21594;BME280;10959;51.328;7.322;2023-02-11T10:32:34;100568.22;;;8.24;83.84
21594;BME280;10959;51.328;7.322;2023-02-11T10:35:13;100570.97;;;8.21;84.24
21594;BME280;10959;51.328;7.322;2023-02-11T10:37:42;100567.19;;;8.36;84.35
21594;BME280;10959;51.328;7.322;2023-02-11T10:40:13;100565.47;;;8.33;83.92
21594;BME280;10959;51.328;7.322;2023-02-11T10:42:40;100568.91;;;8.41;84.14
21594;BME280;10959;51.328;7.322;2023-02-11T10:45:15;100567.25;;;8.31;83.98
21594;BME280;10959;51.328;7.322;2023-02-11T10:47:43;100566.22;;;8.43;83.86
21594;BME280;10959;51.328;7.322;2023-02-11T10:50:21;100566.34;;;8.34;83.81
21594;BME280;10959;51.328;7.322;2023-02-11T10:52:48;100558.16;;;8.44;84.44
21594;BME280;10959;51.328;7.322;2023-02-11T10:55:17;100556.31;;;8.50;83.88
21594;BME280;10959;51.328;7.322;2023-02-11T10:57:52;100562.63;;;8.44;84.37
21594;BME280;10959;51.328;7.322;2023-02-11T11:00:26;100566.22;;;8.46;84.34
21594;BME280;10959;51.328;7.322;2023-02-11T11:02:57;100568.84;;;8.51;84.25
21594;BME280;10959;51.328;7.322;2023-02-11T11:05:29;100559.97;;;8.42;83.92
21594;BME280;10959;51.328;7.322;2023-02-11T11:07:58;100556.25;;;8.54;84.35
21594;BME280;10959;51.328;7.322;2023-02-11T11:10:29;100563.44;;;8.54;84.15
21594;BME280;10959;51.328;7.322;2023-02-11T11:12:56;100566.94;;;8.57;84.44
21594;BME280;10959;51.328;7.322;2023-02-11T11:15:25;100565.13;;;8.61;84.02
21594;BME280;10959;51.328;7.322;2023-02-11T11:18:12;100565.31;;;8.42;84.27
21594;BME280;10959;51.328;7.322;2023-02-11T11:20:43;100565.19;;;8.56;84.12
21594;BME280;10959;51.328;7.322;2023-02-11T11:23:21;100567.75;;;8.65;84.43
21594;BME280;10959;51.328;7.322;2023-02-11T11:25:59;100561.66;;;8.53;84.30
21594;BME280;10959;51.328;7.322;2023-02-11T11:28:28;100561.50;;;8.65;84.18
21594;BME280;10959;51.328;7.322;2023-02-11T11:30:56;100566.78;;;8.71;84.49
21594;BME280;10959;51.328;7.322;2023-02-11T11:33:25;100570.41;;;8.67;84.40
21594;BME280;10959;51.328;7.322;2023-02-11T11:36:10;100567.13;;;8.43;84.43
21594;BME280;10959;51.328;7.322;2023-02-11T11:38:43;100568.81;;;8.54;84.86
21594;BME280;10959;51.328;7.322;2023-02-11T11:41:16;100572.31;;;8.59;84.47
21594;BME280;10959;51.328;7.322;2023-02-11T11:43:57;100578.69;;;8.50;85.04
21594;BME280;10959;51.328;7.322;2023-02-11T11:46:27;100583.91;;;8.62;85.91
21594;BME280;10959;51.328;7.322;2023-02-11T11:48:59;100583.94;;;8.59;85.25
21594;BME280;10959;51.328;7.322;2023-02-11T11:51:30;100591.06;;;8.63;85.72
21594;BME280;10959;51.328;7.322;2023-02-11T11:54:02;100580.34;;;8.62;85.86
21594;BME280;10959;51.328;7.322;2023-02-11T11:56:33;100575.81;;;8.64;86.03
21594;BME280;10959;51.328;7.322;2023-02-11T11:59:01;100572.25;;;8.65;86.59
21594;BME280;10959;51.328;7.322;2023-02-11T12:01:34;100570.59;;;8.55;86.35
21594;BME280;10959;51.328;7.322;2023-02-11T12:04:37;100569.81;;;8.42;86.40
21594;BME280;10959;51.328;7.322;2023-02-11T12:07:18;100566.97;;;8.56;86.68
21594;BME280;10959;51.328;7.322;2023-02-11T12:09:58;100566.00;;;8.61;85.85
21594;BME280;10959;51.328;7.322;2023-02-11T12:12:38;100565.03;;;8.67;85.73
21594;BME280;10959;51.328;7.322;2023-02-11T12:15:24;100564.22;;;8.62;85.41
21594;BME280;10959;51.328;7.322;2023-02-11T12:18:06;100548.91;;;8.67;86.44
21594;BME280;10959;51.328;7.322;2023-02-11T12:20:47;100553.47;;;8.63;86.06
21594;BME280;10959;51.328;7.322;2023-02-11T12:23:31;100547.19;;;8.61;86.12
21594;BME280;10959;51.328;7.322;2023-02-11T12:26:08;100545.25;;;8.74;86.50
21594;BME280;10959;51.328;7.322;2023-02-11T12:28:45;100550.63;;;8.74;86.12
21594;BME280;10959;51.328;7.322;2023-02-11T12:31:26;100553.38;;;8.70;86.21
21594;BME280;10959;51.328;7.322;2023-02-11T12:34:30;100545.38;;;8.65;85.65
21594;BME280;10959;51.328;7.322;2023-02-11T12:37:05;100539.84;;;8.76;85.77
21594;BME280;10959;51.328;7.322;2023-02-11T12:39:42;100545.25;;;8.74;85.71
21594;BME280;10959;51.328;7.322;2023-02-11T12:48:24;100537.97;;;8.82;85.83
21594;BME280;10959;51.328;7.322;2023-02-11T12:50:58;100547.63;;;8.94;86.03
21594;BME280;10959;51.328;7.322;2023-02-11T12:53:43;100554.97;;;8.81;85.31
21594;BME280;10959;51.328;7.322;2023-02-11T12:56:18;100560.22;;;8.92;85.43
21594;BME280;10959;51.328;7.322;2023-02-11T12:58:47;100567.25;;;9.01;85.56
21594;BME280;10959;51.328;7.322;2023-02-11T13:01:19;100560.06;;;9.02;85.40
21594;BME280;10959;51.328;7.322;2023-02-11T13:03:51;100553.06;;;8.91;85.95
21594;BME280;10959;51.328;7.322;2023-02-11T13:06:24;100546.81;;;8.91;85.69
21594;BME280;10959;51.328;7.322;2023-02-11T13:08:57;100535.16;;;8.92;86.13
21594;BME280;10959;51.328;7.322;2023-02-11T13:11:27;100537.75;;;8.98;85.58
21594;BME280;10959;51.328;7.322;2023-02-11T13:13:56;100546.66;;;9.00;85.57
21594;BME280;10959;51.328;7.322;2023-02-11T13:16:34;100550.34;;;8.93;85.51
21594;BME280;10959;51.328;7.322;2023-02-11T13:19:06;100553.91;;;8.95;85.43
21594;BME280;10959;51.328;7.322;2023-02-11T13:21:47;100555.78;;;8.90;85.60
21594;BME280;10959;51.328;7.322;2023-02-11T13:24:23;100541.38;;;8.94;85.64
21594;BME280;10959;51.328;7.322;2023-02-11T13:26:57;100543.13;;;8.98;85.54
21594;BME280;10959;51.328;7.322;2023-02-11T13:29:30;100532.25;;;9.06;85.31